createdAt,value
2022-09-26T08:36:32.853Z,83.97
2022-09-26T08:39:00.802Z,82.10
2022-09-26T08:41:48.194Z,85.37
2022-09-26T08:44:37.776Z,84.70
2022-09-26T08:47:17.668Z,84.69
2022-09-26T08:50:00.017Z,86.42
2022-09-26T08:52:34.308Z,84.04
2022-09-26T08:55:08.509Z,83.13
2022-09-26T08:57:42.363Z,79.61
2022-09-26T09:00:20.175Z,81.47
2022-09-26T09:03:01.232Z,81.22
2022-09-26T09:05:32.843Z,81.11
2022-09-26T09:08:07.893Z,82.50
2022-09-26T09:10:45.920Z,82.53
2022-09-26T09:13:32.100Z,79.18
2022-09-26T09:16:12.110Z,79.01
2022-09-26T09:18:52.483Z,82.81
2022-09-26T09:21:29.948Z,82.80
2022-09-26T09:24:17.283Z,79.84
2022-09-26T09:30:04.032Z,79.68
2022-09-26T09:32:49.841Z,81.74
2022-09-26T09:35:22.083Z,83.53
2022-09-26T09:37:53.351Z,82.72
2022-09-26T09:40:28.981Z,82.85
2022-09-26T09:43:03.821Z,85.00
2022-09-26T09:45:44.887Z,83.42
2022-09-26T09:48:13.653Z,82.61
2022-09-26T09:50:51.110Z,85.94
2022-09-26T09:53:35.789Z,83.20
2022-09-26T09:56:15.604Z,82.17
2022-09-26T09:58:56.397Z,81.35
2022-09-26T10:01:28.093Z,82.88
2022-09-26T10:04:04.599Z,80.60
2022-09-26T10:06:45.343Z,80.14
2022-09-26T10:09:35.349Z,81.02
2022-09-26T10:12:16.655Z,79.21
2022-09-26T10:14:51.002Z,80.02
2022-09-26T10:17:22.453Z,78.11
2022-09-26T10:19:50.524Z,79.20
2022-09-26T10:22:26.125Z,75.84
2022-09-26T10:25:00.856Z,77.34
2022-09-26T10:27:37.663Z,79.45
2022-09-26T10:30:22.492Z,77.15
2022-09-26T10:32:56.535Z,77.07
2022-09-26T10:35:26.341Z,78.69
2022-09-26T10:38:01.290Z,78.05
2022-09-26T10:40:45.365Z,78.61
2022-09-26T10:43:30.546Z,78.61
2022-09-26T10:46:05.764Z,78.67
2022-09-26T10:48:48.279Z,78.29
2022-09-26T10:51:21.042Z,75.63
2022-09-26T10:53:52.927Z,78.28
2022-09-26T10:56:26.920Z,77.74
2022-09-26T10:59:01.388Z,76.55
2022-09-26T11:01:31.782Z,75.96
2022-09-26T11:04:14.137Z,75.97
2022-09-26T11:06:44.079Z,75.58
2022-09-26T11:09:14.152Z,77.04
2022-09-26T11:11:43.847Z,78.83
2022-09-26T11:14:28.261Z,79.74
2022-09-26T11:16:57.224Z,79.74
2022-09-26T11:19:32.333Z,82.27
2022-09-26T11:22:08.234Z,82.79
2022-09-26T11:24:45.574Z,83.11
2022-09-26T11:27:22.323Z,84.06
2022-09-26T11:29:56.535Z,85.13
2022-09-26T11:32:30.282Z,85.42
2022-09-26T11:35:02.554Z,84.69
2022-09-26T11:37:52.926Z,86.36
2022-09-26T11:40:49.952Z,86.41
2022-09-26T11:43:36.113Z,85.19
2022-09-26T11:46:23.461Z,87.70
2022-09-26T11:49:10.558Z,86.62
2022-09-26T11:51:54.142Z,87.61
2022-09-26T11:54:46.818Z,87.81
2022-09-26T11:57:32.962Z,89.71
2022-09-26T12:00:12.001Z,91.17
2022-09-26T12:02:57.911Z,89.80
2022-09-26T12:05:36.453Z,91.26
2022-09-26T12:08:17.537Z,89.79
2022-09-26T12:10:56.680Z,90.42
2022-09-26T12:13:38.813Z,89.42
2022-09-26T12:16:14.472Z,91.59
2022-09-26T12:18:54.780Z,90.77
2022-09-26T12:21:32.532Z,91.08
2022-09-26T12:24:07.975Z,89.82
2022-09-26T12:26:46.439Z,88.72
2022-09-26T12:29:25.767Z,87.92
2022-09-26T12:32:06.234Z,89.56
2022-09-26T12:35:07.132Z,90.26
2022-09-26T12:37:57.307Z,88.71
2022-09-26T12:40:36.122Z,90.59
2022-09-26T12:43:27.952Z,90.00
2022-09-26T12:46:27.268Z,87.79
2022-09-26T12:49:09.111Z,89.93
2022-09-26T12:51:46.470Z,87.50
2022-09-26T12:54:38.310Z,87.56
2022-09-26T12:57:11.298Z,89.72
2022-09-26T13:00:05.894Z,88.92
2022-09-26T13:02:51.335Z,87.53
2022-09-26T13:05:33.340Z,88.31
2022-09-26T13:08:11.637Z,88.70
2022-09-26T13:10:52.338Z,88.34
2022-09-26T13:13:46.842Z,89.43
2022-09-26T13:16:25.075Z,89.49
2022-09-26T13:18:57.627Z,88.44
2022-09-26T13:21:41.196Z,87.68
2022-09-26T13:24:18.473Z,89.07
2022-09-26T13:26:52.941Z,88.21
2022-09-26T13:29:27.369Z,87.98
2022-09-26T13:32:02.817Z,86.80
2022-09-26T13:34:37.523Z,88.71
2022-09-26T13:37:11.832Z,88.68
2022-09-26T13:39:52.268Z,87.25
2022-09-26T13:42:27.750Z,88.17
2022-09-26T13:45:02.243Z,90.57
2022-09-26T13:47:42.545Z,90.03
2022-09-26T13:50:23.298Z,91.68
2022-09-26T13:53:06.663Z,90.94
2022-09-26T13:55:36.372Z,92.92
2022-09-26T13:58:07.824Z,92.38
2022-09-26T14:00:49.142Z,93.31
2022-09-26T14:03:42.620Z,94.66
2022-09-26T14:06:34.213Z,94.65
2022-09-26T14:09:25.849Z,94.04
2022-09-26T14:12:20.055Z,95.37
2022-09-26T14:14:53.228Z,95.82
2022-09-26T14:18:08.634Z,96.03
2022-09-26T14:20:55.143Z,94.93
2022-09-26T14:23:40.019Z,94.68
2022-09-26T14:26:28.355Z,93.49
2022-09-26T14:29:12.947Z,93.79
2022-09-26T14:31:41.715Z,92.57
2022-09-26T14:34:27.870Z,93.73
2022-09-26T14:37:04.985Z,93.19
2022-09-26T14:39:43.636Z,96.34
2022-09-26T14:42:18.737Z,95.28
2022-09-26T14:44:56.201Z,97.30
2022-09-26T14:47:25.872Z,96.20
2022-09-26T14:50:00.412Z,96.85
2022-09-26T14:52:28.543Z,97.47
2022-09-26T14:55:01.395Z,95.89
2022-09-26T14:57:32.258Z,96.79
2022-09-26T15:00:02.719Z,95.98
2022-09-26T15:02:40.588Z,95.29
2022-09-26T15:05:19.817Z,95.36
2022-09-26T15:07:49.956Z,96.48
2022-09-26T15:10:38.279Z,96.06
2022-09-26T15:13:18.153Z,97.82
2022-09-26T15:15:57.429Z,96.75
2022-09-26T15:18:34.575Z,98.09
2022-09-26T15:21:10.673Z,96.97
2022-09-26T15:23:49.246Z,97.83
2022-09-26T15:26:19.729Z,97.25
2022-09-26T15:28:50.404Z,96.52
2022-09-26T15:31:28.684Z,96.49
2022-09-26T15:34:01.366Z,98.52
2022-09-26T15:36:31.206Z,96.48
2022-09-26T15:39:00.040Z,98.78
2022-09-26T15:41:50.747Z,98.51
2022-09-26T15:44:23.931Z,97.64
2022-09-26T15:46:53.160Z,98.48
2022-09-26T15:49:24.434Z,99.09
2022-09-26T15:51:55.367Z,99.99
2022-09-26T15:54:28.683Z,100.00
2022-09-26T15:57:00.573Z,99.75
2022-09-26T15:59:34.661Z,100.00
2022-09-26T16:02:22.542Z,100.00
2022-09-26T16:04:52.855Z,100.00
2022-09-26T16:07:25.213Z,100.00
2022-09-26T16:09:53.779Z,100.00
2022-09-26T16:12:24.036Z,100.00
2022-09-26T16:14:54.832Z,100.00
2022-09-26T16:17:27.105Z,100.00
2022-09-26T16:19:56.862Z,98.71
2022-09-26T16:22:44.911Z,98.44
2022-09-26T16:25:32.545Z,100.00
2022-09-26T16:28:17.641Z,100.00
2022-09-26T16:30:52.915Z,99.72
2022-09-26T16:33:30.742Z,99.88
2022-09-26T16:36:06.153Z,98.75
2022-09-26T16:38:35.825Z,100.00
2022-09-26T16:41:08.963Z,100.00
2022-09-26T16:43:38.993Z,100.00
2022-09-26T16:46:09.680Z,100.00
2022-09-26T16:48:41.623Z,100.00
2022-09-26T16:51:15.244Z,98.85
2022-09-26T16:53:45.495Z,99.66
2022-09-26T16:56:15.411Z,98.64
2022-09-26T16:58:49.490Z,99.08
2022-09-26T17:01:36.102Z,99.58
2022-09-26T17:04:06.047Z,99.53
2022-09-26T17:06:35.151Z,98.60
2022-09-26T17:09:08.883Z,100.00
2022-09-26T17:11:37.082Z,99.18
2022-09-26T17:14:05.032Z,99.28
2022-09-26T17:16:34.289Z,100.00
2022-09-26T17:19:02.227Z,99.97
2022-09-26T17:21:31.436Z,100.00
2022-09-26T17:23:59.292Z,99.95
2022-09-26T17:26:27.104Z,100.00
2022-09-26T17:28:57.193Z,99.35
2022-09-26T17:31:25.080Z,98.06
2022-09-26T17:33:54.712Z,96.83
2022-09-26T17:36:24.215Z,97.76
2022-09-26T17:38:54.652Z,99.51
2022-09-26T17:41:25.210Z,99.45
2022-09-26T17:44:00.057Z,99.62
2022-09-26T17:46:28.935Z,99.73
2022-09-26T17:48:56.830Z,100.00
2022-09-26T17:51:25.479Z,100.00
2022-09-26T17:53:57.375Z,100.00
2022-09-26T17:56:26.341Z,100.00
2022-09-26T17:58:54.242Z,100.00
2022-09-26T18:01:25.491Z,100.00
2022-09-26T18:03:56.937Z,99.97
2022-09-26T18:06:28.109Z,99.91
2022-09-26T18:08:59.726Z,99.60
2022-09-26T18:11:28.190Z,99.99
2022-09-26T18:13:56.896Z,100.00
2022-09-26T18:16:25.182Z,100.00
2022-09-26T18:18:53.301Z,100.00
2022-09-26T18:21:21.757Z,100.00
2022-09-26T18:23:53.103Z,100.00
2022-09-26T18:26:28.382Z,99.25
2022-09-26T18:28:57.804Z,99.24
2022-09-26T18:31:29.683Z,100.00
2022-09-26T18:33:58.217Z,99.29
2022-09-26T18:36:27.255Z,100.00
2022-09-26T18:38:55.056Z,98.82
2022-09-26T18:41:26.583Z,97.60
2022-09-26T18:43:56.886Z,99.07
2022-09-26T18:46:24.826Z,100.00
2022-09-26T18:48:58.343Z,100.00
2022-09-26T18:51:26.688Z,99.16
2022-09-26T18:53:54.709Z,99.00
2022-09-26T18:56:41.613Z,100.00
2022-09-26T18:59:10.342Z,100.00
2022-09-26T19:01:42.830Z,100.00
2022-09-26T19:04:15.929Z,100.00
2022-09-26T19:06:47.027Z,100.00
2022-09-26T19:09:16.786Z,100.00
2022-09-26T19:11:46.383Z,100.00
2022-09-26T19:14:16.499Z,99.45
2022-09-26T19:16:46.039Z,100.00
2022-09-26T19:19:14.731Z,100.00
2022-09-26T19:21:44.473Z,99.72
2022-09-26T19:24:20.748Z,100.00
2022-09-26T19:26:53.021Z,100.00
2022-09-26T19:29:28.257Z,100.00
2022-09-26T19:31:56.357Z,100.00
2022-09-26T19:34:24.857Z,100.00
2022-09-26T19:36:53.802Z,100.00
2022-09-26T19:39:21.772Z,100.00
2022-09-26T19:41:51.145Z,100.00
2022-09-26T19:44:19.098Z,100.00
2022-09-26T19:46:48.349Z,100.00
2022-09-26T19:49:18.777Z,100.00
2022-09-26T19:51:46.959Z,100.00
2022-09-26T19:54:19.657Z,100.00
2022-09-26T19:56:48.078Z,100.00
2022-09-26T19:59:17.801Z,100.00
2022-09-26T20:01:47.517Z,100.00
2022-09-26T20:04:17.743Z,100.00
2022-09-26T20:06:45.965Z,100.00
2022-09-26T20:09:16.940Z,100.00
2022-09-26T20:11:45.017Z,100.00
2022-09-26T20:14:24.841Z,100.00
2022-09-26T20:16:56.329Z,100.00
2022-09-26T20:19:31.500Z,100.00
2022-09-26T20:22:01.981Z,100.00
2022-09-26T20:24:32.028Z,100.00
2022-09-26T20:27:02.754Z,100.00
2022-09-26T20:29:50.760Z,100.00
2022-09-26T20:32:20.195Z,100.00
2022-09-26T20:34:48.289Z,100.00
2022-09-26T20:37:16.451Z,100.00
2022-09-26T20:39:45.012Z,100.00
2022-09-26T20:42:18.592Z,100.00
2022-09-26T20:44:49.758Z,100.00
2022-09-26T20:47:21.364Z,100.00
2022-09-26T20:49:54.807Z,100.00
2022-09-26T20:52:24.926Z,100.00
2022-09-26T20:54:53.220Z,100.00
2022-09-26T20:57:22.195Z,100.00
2022-09-26T20:59:50.526Z,100.00
2022-09-26T21:02:26.846Z,100.00
2022-09-26T21:04:55.295Z,100.00
2022-09-26T21:07:24.327Z,100.00
2022-09-26T21:09:52.306Z,100.00
2022-09-26T21:12:20.347Z,100.00
2022-09-26T21:14:48.367Z,100.00
2022-09-26T21:17:20.399Z,100.00
2022-09-26T21:19:51.454Z,100.00
2022-09-26T21:22:21.848Z,100.00
2022-09-26T21:24:50.266Z,100.00
2022-09-26T21:27:18.297Z,100.00
2022-09-26T21:29:46.876Z,100.00
2022-09-26T21:32:18.280Z,100.00
2022-09-26T21:34:55.565Z,100.00
2022-09-26T21:37:23.646Z,100.00
2022-09-26T21:39:51.732Z,100.00
2022-09-26T21:42:19.594Z,100.00
2022-09-26T21:44:54.196Z,100.00
2022-09-26T21:47:22.017Z,100.00
2022-09-26T21:49:50.205Z,100.00
2022-09-26T21:52:23.440Z,100.00
2022-09-26T21:54:52.436Z,100.00
2022-09-26T21:57:24.897Z,100.00
2022-09-26T21:59:54.192Z,100.00
2022-09-26T22:02:22.060Z,100.00
2022-09-26T22:04:49.972Z,99.53
2022-09-26T22:07:19.293Z,99.04
2022-09-26T22:09:47.539Z,100.00
2022-09-26T22:12:15.528Z,100.00
2022-09-26T22:14:43.643Z,100.00
2022-09-26T22:17:11.967Z,100.00
2022-09-26T22:19:39.842Z,100.00
2022-09-26T22:22:07.673Z,100.00
2022-09-26T22:24:37.123Z,100.00
2022-09-26T22:27:05.468Z,99.18
2022-09-26T22:29:33.740Z,99.55
2022-09-26T22:32:03.859Z,100.00
2022-09-26T22:34:32.554Z,100.00
2022-09-26T22:37:00.517Z,98.95
2022-09-26T22:39:28.572Z,97.89
2022-09-26T22:41:57.970Z,99.64
2022-09-26T22:44:25.966Z,99.04
2022-09-26T22:46:53.862Z,98.64
2022-09-26T22:49:21.818Z,98.48
2022-09-26T22:51:49.790Z,98.87
2022-09-26T22:54:17.649Z,99.44
2022-09-26T22:56:45.430Z,97.87
2022-09-26T22:59:15.047Z,97.96
2022-09-26T23:01:43.307Z,98.47
2022-09-26T23:04:11.534Z,98.47
2022-09-26T23:10:22.162Z,100.00
2022-09-26T23:12:50.689Z,100.00
2022-09-26T23:15:20.525Z,99.46
2022-09-26T23:17:48.631Z,98.37
2022-09-26T23:20:16.815Z,99.90
2022-09-26T23:22:44.652Z,99.27
2022-09-26T23:25:13.582Z,98.59
2022-09-26T23:27:41.343Z,98.27
2022-09-26T23:30:10.077Z,98.12
2022-09-26T23:32:39.277Z,98.83
2022-09-26T23:35:07.873Z,97.74
2022-09-26T23:37:35.654Z,96.95
2022-09-26T23:40:03.602Z,96.79
2022-09-26T23:42:31.512Z,97.94
2022-09-26T23:44:59.903Z,96.97
2022-09-26T23:47:27.661Z,97.06
2022-09-26T23:49:56.947Z,98.80
2022-09-26T23:52:24.728Z,98.05
2022-09-26T23:54:52.560Z,99.17
2022-09-26T23:57:20.388Z,100.00
2022-09-26T23:59:48.138Z,100.00
